Ana Sayfa
METAR-TAF:

METAR-TAF

Havaalanları :

Kushiro, Japonya

Enlem: 43-02N, Boylam: 144-12E, yükseklik: 95 m

Güncel hava durumu gözlemi

Rapor saat 11:00 UTC de 1 saat ve 44 dakika önce yapıldı.
Rüzgar kuzey/kuzeybatıdan 6 kt
Sıcaklık -2°C
Nem 74%
Basınç 1016 hPa
Görüş mesafesi 10 km veya daha fazla
3000 ft yükseklikte az bulutlu
10000 ft yükseklikte parçalı çok bulutlu

METAR: RJCK 191100Z 34006KT 9999 FEW030 BKN100 M02/M06 Q1016

Saat: 21:44 (12:44 UTC)

Tahmin

Rapor saat 11:10 UTC de 1 saat ve 34 dakika önce yapıldı.
Ayın 19'si saat 12 UTC'den ayın 20'si saat 18 UTC'ye kadar geçerli Tahmin
Rüzgar kuzeydan 6 kt
Görüş mesafesi 10 km veya daha fazla
2000 ft yükseklikte az bulutlu
4000 ft yükseklikte parçalı çok bulutlu

TAF: RJCK 191110Z 1912/2018 36006KT 9999 FEW020 BKN040

4.000'den fazla havaalanı için hava durumu gözlemleri ve tahminleri (METAR ve TAF raporları).

Kullanılabilir istasyonlar harita üzerinde sarı ve kırmızı noktalarla gösterilir.

İstasyonun adını görmek için fareyi noktanın üzerinde gezdirin.

Sonrasında hava gözlem ve tahminlerini görmek için tıklayın.

Haritayı değiştirmek için: yaklaştırmak için siyah artı işaretli yeşil düğmeye ve uzaklaştırmak için de eksi işaretli düğmeye hızla tıklayın; bitişik haritalar için yeşil okları kullanın.


METAR-TAF: